createdAt,value
2023-05-24T00:00:32.063Z,730.00
2023-05-24T00:01:32.028Z,730.00
2023-05-24T00:02:32.105Z,730.00
2023-05-24T00:03:32.047Z,730.00
2023-05-24T00:04:32.045Z,730.00
2023-05-24T00:05:32.014Z,730.00
2023-05-24T00:06:31.972Z,730.00
2023-05-24T00:07:31.999Z,730.00
2023-05-24T00:08:31.968Z,729.00
2023-05-24T00:09:31.945Z,729.00
2023-05-24T00:10:31.913Z,729.00
2023-05-24T00:11:31.997Z,729.00
2023-05-24T00:12:31.879Z,729.00
2023-05-24T00:13:31.869Z,729.00
2023-05-24T00:14:31.844Z,729.00
2023-05-24T00:15:31.839Z,729.00
2023-05-24T00:16:31.877Z,729.00
2023-05-24T00:17:31.820Z,729.00
2023-05-24T00:18:31.865Z,729.00
2023-05-24T00:19:31.791Z,729.00
2023-05-24T00:20:31.791Z,729.00
2023-05-24T00:21:31.761Z,729.00
2023-05-24T00:22:31.741Z,729.00
2023-05-24T00:23:31.725Z,729.00
2023-05-24T00:24:31.706Z,728.00
2023-05-24T00:25:31.714Z,729.00
2023-05-24T00:26:31.682Z,729.00
2023-05-24T00:27:31.778Z,729.00
2023-05-24T00:28:31.649Z,729.00
2023-05-24T00:29:32.394Z,728.00
2023-05-24T00:30:31.643Z,728.00
2023-05-24T00:31:31.758Z,728.00
2023-05-24T00:32:31.634Z,728.00
2023-05-24T00:33:31.601Z,728.00
2023-05-24T00:34:31.562Z,728.00
2023-05-24T00:35:31.620Z,728.00
2023-05-24T00:36:31.564Z,728.00
2023-05-24T00:37:31.564Z,728.00
2023-05-24T00:38:31.524Z,728.00
2023-05-24T00:39:31.536Z,728.00
2023-05-24T00:40:31.526Z,728.00
2023-05-24T00:41:31.488Z,728.00
2023-05-24T00:42:31.472Z,728.00
2023-05-24T00:43:31.477Z,728.00
2023-05-24T00:44:31.436Z,728.00
2023-05-24T00:45:33.639Z,728.00
2023-05-24T00:46:31.488Z,728.00
2023-05-24T00:47:31.449Z,728.00
2023-05-24T00:48:31.391Z,729.00
2023-05-24T00:49:31.401Z,728.00
2023-05-24T00:50:31.379Z,729.00
2023-05-24T00:51:31.332Z,729.00
2023-05-24T00:52:31.368Z,729.00
2023-05-24T00:53:31.315Z,729.00
2023-05-24T00:54:31.311Z,728.00
2023-05-24T00:55:31.369Z,728.00
2023-05-24T00:56:31.256Z,728.00
2023-05-24T00:57:31.257Z,728.00
2023-05-24T00:58:31.277Z,728.00
2023-05-24T00:59:31.248Z,728.00
2023-05-24T01:00:31.228Z,728.00
2023-05-24T01:01:31.794Z,728.00
2023-05-24T01:02:31.303Z,728.00
2023-05-24T01:03:31.434Z,728.00
2023-05-24T01:04:31.225Z,728.00
2023-05-24T01:05:31.147Z,728.00
2023-05-24T01:06:31.131Z,728.00
2023-05-24T01:07:31.133Z,728.00
2023-05-24T01:08:31.141Z,728.00
2023-05-24T01:09:31.145Z,727.00
2023-05-24T01:10:31.283Z,728.00
2023-05-24T01:11:31.120Z,728.00
2023-05-24T01:12:31.097Z,728.00
2023-05-24T01:13:31.059Z,727.00
2023-05-24T01:14:31.047Z,727.00
2023-05-24T01:15:31.093Z,727.00
2023-05-24T01:16:31.182Z,728.00
2023-05-24T01:17:31.052Z,728.00
2023-05-24T01:18:30.965Z,728.00
2023-05-24T01:19:30.989Z,728.00
2023-05-24T01:20:30.996Z,728.00
2023-05-24T01:21:30.967Z,728.00
2023-05-24T01:22:30.955Z,728.00
2023-05-24T01:23:30.933Z,729.00
2023-05-24T01:24:30.905Z,729.00
2023-05-24T01:25:30.922Z,729.00
2023-05-24T01:26:30.909Z,729.00
2023-05-24T01:27:30.883Z,729.00
2023-05-24T01:28:30.849Z,729.00
2023-05-24T01:29:30.870Z,729.00
2023-05-24T01:30:30.832Z,729.00
2023-05-24T01:31:30.883Z,729.00
2023-05-24T01:32:30.843Z,729.00
2023-05-24T01:33:30.772Z,729.00
2023-05-24T01:34:30.781Z,729.00
2023-05-24T01:35:30.756Z,729.00
2023-05-24T01:36:30.761Z,729.00
2023-05-24T01:37:30.719Z,729.00
2023-05-24T01:38:30.715Z,729.00
2023-05-24T01:39:30.709Z,729.00
2023-05-24T01:40:30.694Z,729.00
2023-05-24T01:41:30.707Z,729.00
2023-05-24T01:42:30.677Z,729.00
2023-05-24T01:43:30.702Z,729.00
2023-05-24T01:44:30.728Z,730.00
2023-05-24T01:45:30.631Z,730.00
2023-05-24T01:46:30.637Z,729.00
2023-05-24T01:47:30.633Z,729.00
2023-05-24T01:48:30.564Z,729.00
2023-05-24T01:49:30.603Z,729.00
2023-05-24T01:50:30.557Z,730.00
2023-05-24T01:51:30.560Z,730.00
2023-05-24T01:52:30.553Z,730.00
2023-05-24T01:53:30.524Z,730.00
2023-05-24T01:54:30.508Z,730.00
2023-05-24T01:55:30.500Z,730.00
2023-05-24T01:56:30.495Z,730.00
2023-05-24T01:57:30.470Z,730.00
2023-05-24T01:58:30.441Z,730.00
2023-05-24T01:59:30.431Z,730.00
2023-05-24T02:00:30.397Z,730.00
2023-05-24T02:01:30.451Z,730.00
2023-05-24T02:02:30.466Z,730.00
2023-05-24T02:03:30.425Z,730.00
2023-05-24T02:04:30.395Z,730.00
2023-05-24T02:05:30.372Z,730.00
2023-05-24T02:06:30.360Z,730.00
2023-05-24T02:07:30.375Z,730.00
2023-05-24T02:08:30.301Z,730.00
2023-05-24T02:09:30.400Z,730.00
2023-05-24T02:10:30.264Z,730.00
2023-05-24T02:11:30.283Z,730.00
2023-05-24T02:12:30.253Z,730.00
2023-05-24T02:13:30.245Z,730.00
2023-05-24T02:14:30.233Z,730.00
2023-05-24T02:15:30.309Z,730.00
2023-05-24T02:16:30.250Z,730.00
2023-05-24T02:17:30.223Z,730.00
2023-05-24T02:18:30.176Z,730.00
2023-05-24T02:19:30.166Z,730.00
2023-05-24T02:20:30.189Z,730.00
2023-05-24T02:21:30.127Z,730.00
2023-05-24T02:22:30.142Z,730.00
2023-05-24T02:23:30.116Z,730.00
2023-05-24T02:24:30.084Z,730.00
2023-05-24T02:25:30.083Z,730.00
2023-05-24T02:26:30.082Z,730.00
2023-05-24T02:27:30.069Z,731.00
2023-05-24T02:28:30.066Z,730.00
2023-05-24T02:29:30.034Z,730.00
2023-05-24T02:30:30.003Z,730.00
2023-05-24T02:31:30.038Z,730.00
2023-05-24T02:32:30.030Z,730.00
2023-05-24T02:33:30.002Z,730.00
2023-05-24T02:34:29.960Z,730.00
2023-05-24T02:35:29.946Z,730.00
2023-05-24T02:36:29.931Z,730.00
2023-05-24T02:37:29.924Z,730.00
2023-05-24T02:38:29.901Z,730.00
2023-05-24T02:39:29.883Z,731.00
2023-05-24T02:40:29.889Z,731.00
2023-05-24T02:41:29.877Z,731.00
2023-05-24T02:42:29.908Z,730.00
2023-05-24T02:43:29.834Z,731.00
2023-05-24T02:44:29.844Z,730.00
2023-05-24T02:45:29.825Z,730.00
2023-05-24T02:46:29.828Z,730.00
2023-05-24T02:47:29.854Z,730.00
2023-05-24T02:48:29.777Z,731.00
2023-05-24T02:49:29.749Z,730.00
2023-05-24T02:50:29.743Z,731.00
2023-05-24T02:51:29.759Z,731.00
2023-05-24T02:52:29.712Z,731.00
2023-05-24T02:53:29.695Z,730.00
2023-05-24T02:54:29.715Z,731.00
2023-05-24T02:55:29.688Z,730.00
2023-05-24T02:56:29.665Z,730.00
2023-05-24T02:57:29.671Z,731.00
2023-05-24T02:58:29.618Z,731.00
2023-05-24T02:59:29.664Z,730.00
2023-05-24T03:00:29.591Z,731.00
2023-05-24T03:01:29.621Z,730.00
2023-05-24T03:02:29.772Z,730.00
2023-05-24T03:03:29.672Z,731.00
2023-05-24T03:04:29.556Z,731.00
2023-05-24T03:05:29.541Z,731.00
2023-05-24T03:06:29.571Z,731.00
2023-05-24T03:07:29.546Z,731.00
2023-05-24T03:08:29.519Z,731.00
2023-05-24T03:09:29.533Z,731.00
2023-05-24T03:10:29.497Z,731.00
2023-05-24T03:11:29.488Z,731.00
2023-05-24T03:12:29.466Z,731.00
2023-05-24T03:13:29.521Z,730.00
2023-05-24T03:14:29.406Z,731.00
2023-05-24T03:15:29.432Z,731.00
2023-05-24T03:16:29.403Z,730.00
2023-05-24T03:17:29.450Z,730.00
2023-05-24T03:18:29.352Z,731.00
2023-05-24T03:19:29.355Z,731.00
2023-05-24T03:20:29.451Z,731.00
2023-05-24T03:21:29.325Z,731.00
2023-05-24T03:22:29.331Z,731.00
2023-05-24T03:23:29.316Z,731.00
2023-05-24T03:24:29.315Z,731.00
2023-05-24T03:25:29.262Z,731.00
2023-05-24T03:26:29.266Z,731.00
2023-05-24T03:27:29.266Z,730.00
2023-05-24T03:28:29.266Z,731.00
2023-05-24T03:29:29.263Z,731.00
2023-05-24T03:30:29.223Z,731.00
2023-05-24T03:31:29.226Z,731.00
2023-05-24T03:32:29.264Z,731.00
2023-05-24T03:33:29.166Z,731.00
2023-05-24T03:34:29.149Z,731.00
2023-05-24T03:35:29.159Z,730.00
2023-05-24T03:36:29.269Z,730.00
2023-05-24T03:37:29.131Z,730.00
2023-05-24T03:38:29.105Z,731.00
2023-05-24T03:39:29.103Z,731.00
2023-05-24T03:40:29.086Z,730.00
2023-05-24T03:41:29.063Z,731.00
2023-05-24T03:42:29.083Z,730.00
2023-05-24T03:43:29.041Z,730.00
2023-05-24T03:44:29.054Z,731.00
2023-05-24T03:45:38.354Z,730.00
2023-05-24T03:46:29.057Z,730.00
2023-05-24T03:47:29.036Z,731.00
2023-05-24T03:48:28.997Z,731.00
2023-05-24T03:49:28.946Z,730.00
2023-05-24T03:50:28.940Z,731.00
2023-05-24T03:51:28.916Z,731.00
2023-05-24T03:52:28.918Z,731.00
2023-05-24T03:53:28.917Z,731.00
2023-05-24T03:54:28.919Z,731.00
2023-05-24T03:55:28.867Z,731.00
2023-05-24T03:56:28.869Z,731.00
2023-05-24T03:57:28.860Z,731.00
2023-05-24T03:58:28.827Z,731.00
2023-05-24T03:59:28.815Z,731.00
2023-05-24T04:00:28.825Z,730.00
2023-05-24T04:01:34.249Z,730.00
2023-05-24T04:02:28.856Z,730.00
2023-05-24T04:03:28.836Z,730.00
2023-05-24T04:04:28.753Z,731.00
2023-05-24T04:05:28.762Z,731.00
2023-05-24T04:06:28.717Z,730.00
2023-05-24T04:07:28.710Z,731.00
2023-05-24T04:08:28.713Z,731.00
2023-05-24T04:09:28.695Z,731.00
2023-05-24T04:10:28.699Z,731.00
2023-05-24T04:11:28.779Z,731.00
2023-05-24T04:12:28.671Z,731.00
2023-05-24T04:13:28.635Z,731.00
2023-05-24T04:14:28.637Z,731.00
2023-05-24T04:15:28.610Z,731.00
2023-05-24T04:16:28.665Z,731.00
2023-05-24T04:17:28.744Z,731.00
2023-05-24T04:18:28.726Z,732.00
2023-05-24T04:19:28.595Z,732.00
2023-05-24T04:20:28.578Z,732.00
2023-05-24T04:21:28.513Z,732.00
2023-05-24T04:22:28.513Z,732.00
2023-05-24T04:23:28.510Z,732.00
2023-05-24T04:24:28.531Z,732.00
2023-05-24T04:25:28.495Z,732.00
2023-05-24T04:26:28.446Z,732.00
2023-05-24T04:27:28.452Z,732.00
2023-05-24T04:28:28.460Z,732.00
2023-05-24T04:29:28.442Z,732.00
2023-05-24T04:30:28.456Z,733.00
2023-05-24T04:31:28.419Z,732.00
2023-05-24T04:32:28.499Z,733.00
2023-05-24T04:33:28.395Z,733.00
2023-05-24T04:34:28.393Z,733.00
2023-05-24T04:35:28.351Z,733.00
2023-05-24T04:36:28.350Z,733.00
2023-05-24T04:37:28.319Z,733.00
2023-05-24T04:38:28.294Z,733.00
2023-05-24T04:39:28.294Z,734.00
2023-05-24T04:40:28.286Z,734.00
2023-05-24T04:41:28.248Z,734.00
2023-05-24T04:42:28.247Z,734.00
2023-05-24T04:43:28.239Z,734.00
2023-05-24T04:44:28.239Z,734.00
2023-05-24T04:45:28.285Z,734.00
2023-05-24T04:46:28.262Z,735.00
2023-05-24T04:47:28.197Z,735.00
2023-05-24T04:48:28.165Z,735.00
2023-05-24T04:49:28.177Z,735.00
2023-05-24T04:50:28.155Z,735.00
2023-05-24T04:51:28.195Z,735.00
2023-05-24T04:52:28.132Z,735.00
2023-05-24T04:53:28.088Z,735.00
2023-05-24T04:54:28.100Z,735.00
2023-05-24T04:55:28.066Z,735.00
2023-05-24T04:56:28.053Z,735.00
2023-05-24T04:57:28.041Z,736.00
2023-05-24T04:58:28.045Z,736.00
2023-05-24T04:59:28.085Z,736.00
2023-05-24T05:00:27.999Z,736.00
2023-05-24T05:01:28.031Z,736.00
2023-05-24T05:02:28.019Z,737.00
2023-05-24T05:03:28.070Z,736.00
2023-05-24T05:04:27.959Z,737.00
2023-05-24T05:05:27.976Z,737.00
2023-05-24T05:06:27.954Z,737.00
2023-05-24T05:07:27.915Z,737.00
2023-05-24T05:08:27.895Z,737.00
2023-05-24T05:09:27.888Z,737.00
2023-05-24T05:10:27.892Z,736.00
2023-05-24T05:11:27.882Z,737.00
2023-05-24T05:12:27.884Z,737.00
2023-05-24T05:13:27.875Z,737.00
2023-05-24T05:14:27.855Z,737.00
2023-05-24T05:15:27.849Z,737.00
2023-05-24T05:16:27.870Z,737.00
2023-05-24T05:17:27.839Z,738.00
2023-05-24T05:18:27.773Z,738.00
2023-05-24T05:19:27.753Z,738.00
2023-05-24T05:20:27.862Z,738.00
2023-05-24T05:21:27.750Z,738.00
2023-05-24T05:22:29.370Z,738.00
2023-05-24T05:23:27.706Z,738.00
2023-05-24T05:24:27.742Z,738.00
2023-05-24T05:25:27.696Z,738.00
2023-05-24T05:26:27.682Z,738.00
2023-05-24T05:27:27.683Z,738.00
2023-05-24T05:28:27.674Z,738.00
2023-05-24T05:29:27.615Z,738.00
2023-05-24T05:30:27.615Z,738.00
2023-05-24T05:31:27.616Z,738.00
2023-05-24T05:32:27.703Z,737.00
2023-05-24T05:33:27.725Z,737.00
2023-05-24T05:34:27.564Z,737.00
2023-05-24T05:35:27.551Z,737.00
2023-05-24T05:36:27.580Z,737.00
2023-05-24T05:37:27.522Z,737.00
2023-05-24T05:38:27.515Z,737.00
2023-05-24T05:39:27.471Z,736.00
2023-05-24T05:40:27.479Z,736.00
2023-05-24T05:41:27.493Z,736.00
2023-05-24T05:42:27.449Z,735.00
2023-05-24T05:43:27.433Z,735.00
2023-05-24T05:44:27.438Z,735.00
2023-05-24T05:45:27.428Z,736.00
2023-05-24T05:46:27.406Z,736.00
2023-05-24T05:47:27.455Z,736.00
2023-05-24T05:48:27.382Z,737.00
2023-05-24T05:49:27.342Z,737.00
2023-05-24T05:50:27.328Z,737.00
2023-05-24T05:51:27.330Z,737.00
2023-05-24T05:52:27.451Z,737.00
2023-05-24T05:53:27.301Z,737.00
2023-05-24T05:54:27.310Z,737.00
2023-05-24T05:55:27.271Z,737.00
2023-05-24T05:56:27.261Z,738.00
2023-05-24T05:57:27.273Z,738.00
2023-05-24T05:58:27.232Z,738.00
2023-05-24T05:59:27.204Z,738.00
2023-05-24T06:00:27.218Z,738.00
2023-05-24T06:01:27.194Z,738.00
2023-05-24T06:02:27.249Z,739.00
2023-05-24T06:03:27.234Z,739.00
2023-05-24T06:04:27.268Z,739.00
2023-05-24T06:05:27.163Z,740.00
2023-05-24T06:06:27.134Z,740.00
2023-05-24T06:07:27.126Z,740.00
2023-05-24T06:08:27.152Z,740.00
2023-05-24T06:09:27.091Z,740.00
2023-05-24T06:10:27.135Z,741.00
2023-05-24T06:11:27.087Z,740.00
2023-05-24T06:12:27.077Z,740.00
2023-05-24T06:13:27.061Z,740.00
2023-05-24T06:14:26.999Z,739.00
2023-05-24T06:15:27.020Z,739.00
2023-05-24T06:16:27.041Z,739.00
2023-05-24T06:17:27.049Z,739.00
2023-05-24T06:18:26.974Z,739.00
2023-05-24T06:19:26.953Z,739.00
2023-05-24T06:20:26.978Z,739.00
2023-05-24T06:21:26.976Z,739.00
2023-05-24T06:22:26.907Z,740.00
2023-05-24T06:23:26.889Z,740.00
2023-05-24T06:24:26.906Z,740.00
2023-05-24T06:25:26.888Z,740.00
2023-05-24T06:26:26.862Z,741.00
2023-05-24T06:27:26.854Z,741.00
2023-05-24T06:28:26.857Z,742.00
2023-05-24T06:29:26.824Z,742.00
2023-05-24T06:30:26.869Z,742.00
2023-05-24T06:31:26.820Z,743.00
2023-05-24T06:32:26.798Z,743.00
2023-05-24T06:33:26.793Z,742.00
2023-05-24T06:34:26.763Z,743.00
2023-05-24T06:35:26.726Z,742.00
2023-05-24T06:36:26.736Z,742.00
2023-05-24T06:37:26.742Z,743.00
2023-05-24T06:38:26.717Z,743.00
2023-05-24T06:39:26.717Z,743.00
2023-05-24T06:40:26.663Z,743.00
2023-05-24T06:41:26.634Z,743.00
2023-05-24T06:42:26.662Z,744.00
2023-05-24T06:43:26.626Z,744.00
2023-05-24T06:44:26.626Z,744.00
2023-05-24T06:45:26.603Z,745.00
2023-05-24T06:46:26.615Z,745.00
2023-05-24T06:47:26.742Z,745.00
2023-05-24T06:48:26.686Z,746.00
2023-05-24T06:49:26.584Z,746.00
2023-05-24T06:50:26.586Z,746.00
2023-05-24T06:51:26.502Z,747.00
2023-05-24T06:52:26.536Z,747.00
2023-05-24T06:53:26.500Z,747.00
2023-05-24T06:54:26.551Z,747.00
2023-05-24T06:55:26.523Z,747.00
2023-05-24T06:56:26.470Z,748.00
2023-05-24T06:57:26.467Z,748.00
2023-05-24T06:58:26.414Z,748.00
2023-05-24T06:59:26.428Z,748.00
2023-05-24T07:00:26.472Z,748.00
2023-05-24T07:01:26.478Z,748.00
2023-05-24T07:02:26.434Z,748.00
2023-05-24T07:03:26.364Z,749.00
2023-05-24T07:04:26.388Z,749.00
2023-05-24T07:05:26.324Z,748.00
2023-05-24T07:06:26.322Z,748.00
2023-05-24T07:07:26.302Z,748.00
2023-05-24T07:08:26.293Z,748.00
2023-05-24T07:09:26.293Z,749.00
2023-05-24T07:10:26.272Z,750.00
2023-05-24T07:11:26.300Z,750.00
2023-05-24T07:12:26.233Z,750.00
2023-05-24T07:13:26.203Z,750.00
2023-05-24T07:14:26.240Z,751.00
2023-05-24T07:15:26.234Z,751.00
2023-05-24T07:16:26.300Z,750.00
2023-05-24T07:17:26.293Z,751.00
2023-05-24T07:18:26.169Z,751.00
2023-05-24T07:19:26.140Z,751.00
2023-05-24T07:20:26.204Z,751.00
2023-05-24T07:21:26.124Z,751.00
2023-05-24T07:22:26.144Z,751.00
2023-05-24T07:23:26.092Z,751.00
2023-05-24T07:24:26.092Z,751.00
2023-05-24T07:25:26.056Z,751.00
2023-05-24T07:26:26.112Z,751.00
2023-05-24T07:27:26.028Z,751.00
2023-05-24T07:28:26.057Z,751.00
2023-05-24T07:29:26.092Z,751.00
2023-05-24T07:30:32.236Z,751.00
2023-05-24T07:31:26.017Z,751.00
2023-05-24T07:32:26.044Z,751.00
2023-05-24T07:33:25.976Z,751.00
2023-05-24T07:34:25.948Z,751.00
2023-05-24T07:35:25.967Z,752.00
2023-05-24T07:36:25.934Z,752.00
2023-05-24T07:37:25.881Z,752.00
2023-05-24T07:38:25.863Z,752.00
2023-05-24T07:39:25.861Z,752.00
2023-05-24T07:40:25.874Z,752.00
2023-05-24T07:41:26.656Z,751.00
2023-05-24T07:42:25.925Z,751.00
2023-05-24T07:43:26.056Z,751.00
2023-05-24T07:44:26.186Z,752.00
2023-05-24T07:45:25.868Z,752.00
2023-05-24T07:46:26.837Z,753.00
2023-05-24T07:47:26.478Z,754.00
2023-05-24T07:48:25.757Z,754.00
2023-05-24T07:49:25.767Z,754.00
2023-05-24T07:50:25.712Z,755.00
2023-05-24T07:51:25.702Z,754.00
2023-05-24T07:52:25.745Z,754.00
2023-05-24T07:53:25.690Z,754.00
2023-05-24T07:54:25.680Z,754.00
2023-05-24T07:55:25.668Z,754.00
2023-05-24T07:56:25.631Z,754.00
2023-05-24T07:57:25.674Z,752.00
2023-05-24T07:58:25.607Z,752.00
2023-05-24T07:59:25.604Z,752.00
2023-05-24T08:00:25.630Z,752.00
2023-05-24T08:01:25.601Z,752.00
2023-05-24T08:02:25.654Z,752.00
2023-05-24T08:03:25.610Z,752.00
2023-05-24T08:04:25.586Z,752.00
2023-05-24T08:05:25.525Z,752.00
2023-05-24T08:06:25.551Z,753.00
2023-05-24T08:07:25.610Z,753.00
2023-05-24T08:08:25.481Z,753.00
2023-05-24T08:09:25.453Z,752.00
2023-05-24T08:10:25.443Z,752.00
2023-05-24T08:11:25.474Z,753.00
2023-05-24T08:12:25.491Z,753.00
2023-05-24T08:13:25.430Z,752.00
2023-05-24T08:14:25.395Z,753.00
2023-05-24T08:15:25.374Z,753.00
2023-05-24T08:16:25.414Z,753.00
2023-05-24T08:17:25.368Z,753.00
2023-05-24T08:18:25.327Z,753.00
2023-05-24T08:19:25.376Z,754.00
2023-05-24T08:20:25.386Z,755.00
2023-05-24T08:21:25.297Z,755.00
2023-05-24T08:22:25.292Z,754.00
2023-05-24T08:23:25.274Z,754.00
2023-05-24T08:24:25.301Z,754.00
2023-05-24T08:25:25.266Z,755.00
2023-05-24T08:26:25.254Z,755.00
2023-05-24T08:27:25.229Z,755.00
2023-05-24T08:28:25.217Z,755.00
2023-05-24T08:29:25.212Z,755.00
2023-05-24T08:30:25.175Z,755.00
2023-05-24T08:31:25.293Z,755.00
2023-05-24T08:32:25.194Z,755.00
2023-05-24T08:33:25.132Z,755.00
2023-05-24T08:34:25.151Z,755.00
2023-05-24T08:35:25.160Z,754.00
2023-05-24T08:36:25.099Z,754.00
2023-05-24T08:37:25.089Z,753.00
2023-05-24T08:38:25.072Z,753.00
2023-05-24T08:39:25.073Z,754.00
2023-05-24T08:40:25.111Z,753.00
2023-05-24T08:41:25.026Z,753.00
2023-05-24T08:42:25.036Z,753.00
2023-05-24T08:43:24.999Z,753.00
2023-05-24T08:44:24.995Z,754.00
2023-05-24T08:45:24.991Z,754.00
2023-05-24T08:46:25.015Z,754.00
2023-05-24T08:47:25.000Z,755.00
2023-05-24T08:48:25.104Z,755.00
2023-05-24T08:49:24.921Z,756.00
2023-05-24T08:50:24.926Z,755.00
2023-05-24T08:51:24.926Z,755.00
2023-05-24T08:52:24.897Z,756.00
2023-05-24T08:53:24.883Z,756.00
2023-05-24T08:54:24.870Z,756.00
2023-05-24T08:55:24.894Z,756.00
2023-05-24T08:56:24.839Z,756.00
2023-05-24T08:57:24.835Z,757.00
2023-05-24T08:58:24.794Z,757.00
2023-05-24T08:59:24.790Z,757.00
2023-05-24T09:00:24.777Z,756.00
2023-05-24T09:01:24.786Z,756.00
2023-05-24T09:02:24.771Z,756.00
2023-05-24T09:03:24.931Z,755.00
2023-05-24T09:04:24.794Z,755.00
2023-05-24T09:05:24.706Z,754.00
2023-05-24T09:06:24.735Z,753.00
2023-05-24T09:07:24.708Z,753.00
2023-05-24T09:08:24.674Z,753.00
2023-05-24T09:09:24.748Z,753.00
2023-05-24T09:10:24.654Z,753.00
2023-05-24T09:11:24.642Z,754.00
2023-05-24T09:12:36.131Z,755.00
2023-05-24T09:13:24.775Z,755.00
2023-05-24T09:14:24.608Z,755.00
2023-05-24T09:15:24.590Z,756.00
2023-05-24T09:16:24.591Z,756.00
2023-05-24T09:17:24.589Z,757.00
2023-05-24T09:18:24.634Z,757.00
2023-05-24T09:19:24.561Z,757.00
2023-05-24T09:20:24.608Z,757.00
2023-05-24T09:21:24.513Z,757.00
2023-05-24T09:22:24.479Z,757.00
2023-05-24T09:23:24.503Z,757.00
2023-05-24T09:24:24.459Z,756.00
2023-05-24T09:25:24.446Z,756.00
2023-05-24T09:26:24.421Z,755.00
2023-05-24T09:27:24.411Z,755.00
2023-05-24T09:28:24.394Z,755.00
2023-05-24T09:29:24.422Z,755.00
2023-05-24T09:30:24.411Z,755.00
2023-05-24T09:31:24.403Z,755.00
2023-05-24T09:32:24.616Z,755.00
2023-05-24T09:33:24.329Z,755.00
2023-05-24T09:34:24.368Z,755.00
2023-05-24T09:35:24.394Z,755.00
2023-05-24T09:36:24.328Z,755.00
2023-05-24T09:37:28.203Z,756.00
2023-05-24T09:38:24.259Z,756.00
2023-05-24T09:39:24.252Z,756.00
2023-05-24T09:40:24.274Z,756.00
2023-05-24T09:41:24.266Z,756.00
2023-05-24T09:42:24.231Z,756.00
2023-05-24T09:43:26.324Z,756.00
2023-05-24T09:44:24.177Z,755.00
2023-05-24T09:45:24.232Z,755.00
2023-05-24T09:46:24.177Z,755.00
2023-05-24T09:47:24.211Z,755.00
2023-05-24T09:48:24.124Z,755.00
2023-05-24T09:49:24.131Z,755.00
2023-05-24T09:50:24.123Z,754.00
2023-05-24T09:51:24.139Z,753.00
2023-05-24T09:52:24.113Z,752.00
2023-05-24T09:53:24.061Z,752.00
2023-05-24T09:54:24.067Z,751.00
2023-05-24T09:55:24.081Z,751.00
2023-05-24T09:56:24.022Z,751.00
2023-05-24T09:57:24.081Z,751.00
2023-05-24T09:58:24.006Z,751.00
2023-05-24T09:59:23.972Z,751.00
2023-05-24T10:00:23.992Z,751.00
2023-05-24T10:01:24.031Z,751.00
2023-05-24T10:02:23.994Z,751.00
2023-05-24T10:03:24.027Z,751.00
2023-05-24T10:04:29.988Z,752.00
2023-05-24T10:05:29.942Z,752.00
2023-05-24T10:06:23.902Z,752.00
2023-05-24T10:07:23.874Z,752.00
2023-05-24T10:08:23.860Z,752.00
2023-05-24T10:09:23.889Z,752.00
2023-05-24T10:10:23.844Z,752.00
2023-05-24T10:11:23.835Z,752.00
2023-05-24T10:12:23.799Z,752.00
2023-05-24T10:13:23.836Z,752.00
2023-05-24T10:14:23.809Z,753.00
2023-05-24T10:15:23.785Z,753.00
2023-05-24T10:16:23.812Z,753.00
2023-05-24T10:17:23.779Z,753.00
2023-05-24T10:18:23.736Z,753.00
2023-05-24T10:19:23.740Z,752.00
2023-05-24T10:20:23.796Z,752.00
2023-05-24T10:21:23.752Z,752.00
2023-05-24T10:22:23.701Z,752.00
2023-05-24T10:23:23.683Z,752.00
2023-05-24T10:24:23.725Z,752.00
2023-05-24T10:25:23.683Z,753.00
2023-05-24T10:26:23.634Z,753.00
2023-05-24T10:27:23.631Z,753.00
2023-05-24T10:28:23.626Z,754.00
2023-05-24T10:29:23.598Z,755.00
2023-05-24T10:30:23.602Z,755.00
2023-05-24T10:31:23.584Z,754.00
2023-05-24T10:32:23.569Z,755.00
2023-05-24T10:33:23.581Z,755.00
2023-05-24T10:34:23.535Z,755.00
2023-05-24T10:35:23.541Z,756.00
2023-05-24T10:36:23.530Z,756.00
2023-05-24T10:37:23.512Z,756.00
2023-05-24T10:38:23.470Z,756.00
2023-05-24T10:39:23.459Z,757.00
2023-05-24T10:40:23.435Z,757.00
2023-05-24T10:41:23.534Z,758.00
2023-05-24T10:42:23.411Z,757.00
2023-05-24T10:43:23.421Z,757.00
2023-05-24T10:44:23.400Z,757.00
2023-05-24T10:45:23.384Z,757.00
2023-05-24T10:46:23.428Z,757.00
2023-05-24T10:47:23.361Z,757.00
2023-05-24T10:48:23.337Z,757.00
2023-05-24T10:49:23.325Z,757.00
2023-05-24T10:50:23.321Z,757.00
2023-05-24T10:51:23.342Z,757.00
2023-05-24T10:52:23.274Z,758.00
2023-05-24T10:53:23.285Z,758.00
2023-05-24T10:54:23.230Z,758.00
2023-05-24T10:55:23.250Z,758.00
2023-05-24T10:56:23.209Z,758.00
2023-05-24T10:57:23.221Z,758.00
2023-05-24T10:58:23.219Z,758.00
2023-05-24T10:59:23.164Z,758.00
2023-05-24T11:00:34.794Z,758.00
2023-05-24T11:01:23.206Z,758.00
2023-05-24T11:02:23.212Z,758.00
2023-05-24T11:03:23.144Z,758.00
2023-05-24T11:04:23.130Z,758.00
2023-05-24T11:05:23.156Z,758.00
2023-05-24T11:06:23.075Z,759.00
2023-05-24T11:07:23.146Z,759.00
2023-05-24T11:08:24.201Z,759.00
2023-05-24T11:09:23.551Z,760.00
2023-05-24T11:10:24.328Z,760.00
2023-05-24T11:11:26.119Z,760.00
2023-05-24T11:12:23.123Z,760.00
2023-05-24T11:13:23.256Z,760.00
2023-05-24T11:14:22.976Z,759.00
2023-05-24T11:15:22.967Z,758.00
2023-05-24T11:16:23.003Z,757.00
2023-05-24T11:17:23.261Z,758.00
2023-05-24T11:18:23.017Z,758.00
2023-05-24T11:19:22.934Z,758.00
2023-05-24T11:20:22.940Z,758.00
2023-05-24T11:21:22.922Z,757.00
2023-05-24T11:22:22.925Z,756.00
2023-05-24T11:23:22.864Z,756.00
2023-05-24T11:24:22.830Z,756.00
2023-05-24T11:25:22.823Z,756.00
2023-05-24T11:26:22.816Z,756.00
2023-05-24T11:27:22.810Z,757.00
2023-05-24T11:28:22.875Z,757.00
2023-05-24T11:29:23.180Z,757.00
2023-05-24T11:30:22.744Z,758.00
2023-05-24T11:31:22.796Z,759.00
2023-05-24T11:32:22.983Z,760.00
2023-05-24T11:33:22.771Z,760.00
2023-05-24T11:34:22.727Z,760.00
2023-05-24T11:35:22.718Z,760.00
2023-05-24T11:36:22.687Z,759.00
2023-05-24T11:37:34.847Z,759.00
2023-05-24T11:38:24.923Z,758.00
2023-05-24T11:39:22.660Z,758.00
2023-05-24T11:40:22.654Z,757.00
2023-05-24T11:41:22.636Z,757.00
2023-05-24T11:42:22.686Z,757.00
2023-05-24T11:43:22.622Z,758.00
2023-05-24T11:44:22.586Z,758.00
2023-05-24T11:45:22.570Z,758.00
2023-05-24T11:46:22.682Z,758.00
2023-05-24T11:47:22.720Z,757.00
2023-05-24T11:48:22.544Z,757.00
2023-05-24T11:49:22.521Z,758.00
2023-05-24T11:50:22.488Z,758.00
2023-05-24T11:51:22.496Z,758.00
2023-05-24T11:52:22.476Z,757.00
2023-05-24T11:53:22.475Z,757.00
2023-05-24T11:54:22.443Z,757.00
2023-05-24T11:55:22.431Z,758.00
2023-05-24T11:56:22.448Z,758.00
2023-05-24T11:57:22.441Z,758.00
2023-05-24T11:58:22.432Z,758.00
2023-05-24T11:59:22.419Z,757.00
2023-05-24T12:00:22.401Z,757.00
2023-05-24T12:01:22.369Z,757.00
2023-05-24T12:02:22.426Z,758.00
2023-05-24T12:03:22.481Z,757.00
2023-05-24T12:04:22.424Z,758.00
2023-05-24T12:05:22.317Z,758.00
2023-05-24T12:06:22.360Z,757.00
2023-05-24T12:07:22.258Z,757.00
2023-05-24T12:08:22.263Z,757.00
2023-05-24T12:09:22.227Z,758.00
2023-05-24T12:10:23.069Z,757.00
2023-05-24T12:11:22.232Z,757.00
2023-05-24T12:12:27.045Z,758.00
2023-05-24T12:13:22.204Z,758.00
2023-05-24T12:14:22.204Z,758.00
2023-05-24T12:15:22.181Z,759.00
2023-05-24T12:16:22.182Z,760.00
2023-05-24T12:17:22.154Z,760.00
2023-05-24T12:18:22.130Z,760.00
2023-05-24T12:19:32.407Z,760.00
2023-05-24T12:20:22.180Z,761.00
2023-05-24T12:21:22.113Z,760.00
2023-05-24T12:22:22.086Z,760.00
2023-05-24T12:23:22.064Z,760.00
2023-05-24T12:24:22.046Z,760.00
2023-05-24T12:25:22.059Z,759.00
2023-05-24T12:26:22.013Z,759.00
2023-05-24T12:27:22.068Z,760.00
2023-05-24T12:28:22.012Z,760.00